Time;durP1;ratioP1;P1;durP2;ratioP2;P2;SDS_P1;SDS_P2;PMS_P1;PMS_P2;Temp;Humidity;BMP_temperature;BMP_pressure;BME280_temperature;BME280_humidity;BME280_pressure;Samples;Min_cycle;Max_cycle;Signal;HPM_P1;HPM_P2
2022/08/21 00:01:26;;;;;;;9.00;3.50;;;;;21.70;96892.20;;;;110684;1251;41147;-69
2022/08/21 00:03:56;;;;;;;9.60;3.70;;;;;21.70;96892.20;;;;110817;1250;41159;-68
2022/08/21 00:06:26;;;;;;;14.30;3.90;;;;;21.70;96889.40;;;;110654;1250;42219;-68
2022/08/21 00:08:56;;;;;;;9.50;3.80;;;;;21.64;96888.80;;;;110934;1250;42372;-69
2022/08/21 00:11:29;;;;;;;7.80;3.30;;;;;21.56;96885.60;;;;110653;1250;41760;-68
2022/08/21 00:13:59;;;;;;;9.30;3.30;;;;;21.50;96880.60;;;;110683;1251;41413;-69
2022/08/21 00:16:28;;;;;;;6.10;2.70;;;;;21.50;96880.80;;;;110756;1250;41457;-69
2022/08/21 00:18:58;;;;;;;6.60;2.70;;;;;21.48;96880.00;;;;110623;1250;41940;-69
2022/08/21 00:21:27;;;;;;;9.50;3.40;;;;;21.46;96882.80;;;;110655;1250;41266;-70
2022/08/21 00:23:56;;;;;;;8.70;3.30;;;;;21.40;96885.20;;;;110855;1250;41467;-66
2022/08/21 00:26:26;;;;;;;7.50;2.90;;;;;21.42;96883.20;;;;110831;1250;41142;-68
2022/08/21 00:28:55;;;;;;;9.00;3.70;;;;;21.44;96882.80;;;;110762;1250;41152;-70
2022/08/21 00:31:26;;;;;;;10.10;4.30;;;;;21.40;96884.40;;;;110624;1250;41744;-67
2022/08/21 00:33:55;;;;;;;9.90;3.20;;;;;21.40;96881.00;;;;110609;1250;41510;-69
2022/08/21 00:36:29;;;;;;;7.10;2.90;;;;;21.40;96876.20;;;;110554;1251;41157;-69
2022/08/21 00:38:59;;;;;;;6.70;2.80;;;;;21.40;96873.60;;;;110578;1250;41844;-68
2022/08/21 00:41:28;;;;;;;6.40;2.50;;;;;21.40;96871.40;;;;110612;1251;41269;-67
2022/08/21 00:44:10;;;;;;;8.80;3.10;;;;;21.40;96872.40;;;;110794;1250;41164;-69
2022/08/21 00:46:41;;;;;;;7.10;2.60;;;;;21.40;96871.40;;;;110763;1251;41142;-69
2022/08/21 00:49:13;;;;;;;9.00;2.90;;;;;21.40;96869.00;;;;110579;1251;42256;-68
2022/08/21 00:51:50;;;;;;;7.60;2.50;;;;;21.40;96867.60;;;;110616;1251;41811;-69
2022/08/21 00:54:23;;;;;;;7.90;2.70;;;;;21.40;96870.00;;;;110696;1251;41157;-70
2022/08/21 00:57:08;;;;;;;5.80;2.60;;;;;21.40;96873.60;;;;110725;1251;41156;-69
2022/08/21 00:59:38;;;;;;;7.70;2.90;;;;;21.42;96870.20;;;;110657;1251;41185;-69
2022/08/21 01:02:09;;;;;;;5.80;2.40;;;;;21.40;96871.80;;;;110804;1250;41655;-69
2022/08/21 01:04:39;;;;;;;;;;;;;21.40;96869.80;;;;110813;1251;41288;-68
2022/08/21 01:07:10;;;;;;;9.70;3.10;;;;;21.40;96872.80;;;;110904;1249;41205;-68
2022/08/21 01:09:40;;;;;;;6.90;2.60;;;;;21.40;96876.00;;;;110765;1250;42659;-69
2022/08/21 01:12:12;;;;;;;8.70;3.10;;;;;21.36;96878.00;;;;110863;1250;41358;-68
2022/08/21 01:14:43;;;;;;;7.40;3.10;;;;;21.30;96872.60;;;;110683;1251;41307;-67
2022/08/21 01:17:13;;;;;;;7.90;2.90;;;;;21.30;96867.80;;;;110679;1250;42346;-69
2022/08/21 01:19:43;;;;;;;;;;;;;21.20;96866.60;;;;110955;1250;41162;-68
2022/08/21 01:22:14;;;;;;;7.70;2.80;;;;;21.20;96856.40;;;;110928;1249;41887;-69
2022/08/21 01:24:45;;;;;;;7.60;3.00;;;;;21.10;96857.20;;;;110935;1250;41264;-69
2022/08/21 01:27:15;;;;;;;;;;;;;21.10;96855.00;;;;110743;1250;41159;-69
2022/08/21 01:29:57;;;;;;;7.40;2.90;;;;;21.00;96846.60;;;;110584;1251;41715;-68
2022/08/21 01:32:28;;;;;;;5.60;2.30;;;;;20.90;96847.20;;;;110671;1251;41161;-67
2022/08/21 01:35:00;;;;;;;10.60;3.30;;;;;20.90;96845.80;;;;110791;1250;41729;-69
2022/08/21 01:37:29;;;;;;;9.00;3.20;;;;;20.80;96846.60;;;;110733;1250;41382;-68
2022/08/21 01:40:03;;;;;;;8.50;3.20;;;;;20.78;96844.80;;;;110886;1250;41266;-68
2022/08/21 01:42:34;;;;;;;9.00;3.30;;;;;20.70;96844.60;;;;110817;1250;41236;-69
2022/08/21 01:45:07;;;;;;;10.10;4.00;;;;;20.60;96847.00;;;;110959;1250;41224;-69
2022/08/21 01:47:37;;;;;;;8.10;3.40;;;;;20.58;96848.20;;;;110765;1250;42405;-68
2022/08/21 01:50:10;;;;;;;8.50;3.70;;;;;20.46;96845.60;;;;110624;1251;41455;-68
2022/08/21 01:52:40;;;;;;;12.00;3.40;;;;;20.40;96841.60;;;;110586;1250;42478;-68
2022/08/21 01:55:12;;;;;;;7.00;2.80;;;;;20.36;96839.20;;;;110833;1250;41135;-67
2022/08/21 01:57:45;;;;;;;8.40;2.90;;;;;20.36;96839.40;;;;110747;1250;41143;-69
2022/08/21 02:00:19;;;;;;;8.90;2.90;;;;;20.30;96842.00;;;;110617;1249;41170;-68
2022/08/21 02:02:50;;;;;;;11.90;3.50;;;;;20.30;96842.80;;;;110575;1251;41278;-68
2022/08/21 02:05:20;;;;;;;7.70;3.10;;;;;20.30;96839.20;;;;110720;1250;41158;-68
2022/08/21 02:07:53;;;;;;;7.40;3.00;;;;;20.26;96846.20;;;;110670;1250;41553;-68
2022/08/21 02:10:31;;;;;;;8.50;3.30;;;;;20.20;96850.20;;;;110544;1251;42053;-68
2022/08/21 02:13:02;;;;;;;8.10;3.30;;;;;20.20;96851.00;;;;110655;1250;41322;-68
2022/08/21 02:15:32;;;;;;;14.90;3.20;;;;;20.20;96849.60;;;;110624;1251;41266;-67
2022/08/21 02:18:06;;;;;;;8.80;3.30;;;;;20.20;96847.80;;;;110817;1250;41637;-68
2022/08/21 02:20:41;;;;;;;9.40;3.30;;;;;20.20;96840.60;;;;110632;1251;41548;-69
2022/08/21 02:23:12;;;;;;;8.50;3.20;;;;;20.20;96835.20;;;;110825;1251;41377;-69
2022/08/21 02:25:43;;;;;;;8.20;2.80;;;;;20.20;96830.20;;;;110812;1250;41961;-68
2022/08/21 02:28:14;;;;;;;10.40;3.60;;;;;20.20;96826.40;;;;110896;1250;41161;-67
2022/08/21 02:30:47;;;;;;;7.40;2.80;;;;;20.18;96825.60;;;;110666;1250;41350;-67
2022/08/21 02:33:17;;;;;;;6.80;2.70;;;;;20.10;96830.40;;;;110625;1250;41278;-68
2022/08/21 02:35:49;;;;;;;7.50;2.90;;;;;20.10;96830.40;;;;110591;1249;41161;-68
2022/08/21 02:38:22;;;;;;;10.90;3.50;;;;;20.10;96835.20;;;;110603;1252;41252;-68
2022/08/21 02:40:56;;;;;;;11.20;4.30;;;;;20.10;96837.40;;;;110673;1251;41197;-67
2022/08/21 02:43:27;;;;;;;9.60;4.00;;;;;19.90;96841.40;;;;110590;1252;41983;-68
2022/08/21 02:45:59;;;;;;;12.20;4.30;;;;;20.00;96854.40;;;;110770;1250;41588;-68
2022/08/21 02:48:32;;;;;;;8.30;3.50;;;;;20.00;96853.60;;;;110596;1250;41718;-68
2022/08/21 02:51:06;;;;;;;7.30;3.00;;;;;19.96;96850.40;;;;110665;1250;41210;-68
2022/08/21 02:53:36;;;;;;;7.70;2.80;;;;;20.00;96851.80;;;;110645;1250;41150;-67
2022/08/21 02:56:08;;;;;;;;;;;;;20.00;96845.20;;;;110644;1251;41166;-71
2022/08/21 02:58:42;;;;;;;8.90;3.50;;;;;20.00;96854.40;;;;110907;1250;41278;-68
2022/08/21 03:01:12;;;;;;;7.60;2.90;;;;;20.06;96854.20;;;;111059;1250;41150;-66
2022/08/21 03:03:44;;;;;;;8.60;3.30;;;;;20.10;96852.00;;;;110839;1249;42163;-66
2022/08/21 03:06:16;;;;;;;8.90;3.10;;;;;20.10;96851.40;;;;110846;1249;41154;-69
2022/08/21 03:08:46;;;;;;;8.70;3.10;;;;;20.16;96854.00;;;;110803;1250;41686;-71
2022/08/21 03:11:20;;;;;;;8.50;3.10;;;;;20.20;96852.40;;;;110976;1249;41632;-67
2022/08/21 03:13:51;;;;;;;11.80;3.80;;;;;20.20;96852.20;;;;110843;1250;41541;-68
2022/08/21 03:16:21;;;;;;;8.90;3.40;;;;;20.20;96851.60;;;;111020;1248;40733;-65
2022/08/21 03:18:52;;;;;;;;;;;;;20.24;96850.60;;;;110766;1251;41131;-66
2022/08/21 03:21:22;;;;;;;9.20;3.30;;;;;20.20;96849.60;;;;111072;1249;41217;-67
2022/08/21 03:23:53;;;;;;;9.00;3.40;;;;;20.20;96853.20;;;;110942;1249;41181;-66
2022/08/21 03:26:24;;;;;;;;;;;;;20.24;96852.60;;;;110783;1250;41164;-68
2022/08/21 03:28:57;;;;;;;8.20;3.10;;;;;20.20;96854.80;;;;110749;1250;41593;-68
2022/08/21 03:31:31;;;;;;;;;;;;;20.22;96849.00;;;;110865;1249;42083;-65
2022/08/21 03:34:00;;;;;;;9.00;3.20;;;;;20.20;96848.40;;;;110760;1249;41567;-66
2022/08/21 03:36:30;;;;;;;9.80;3.10;;;;;20.20;96850.20;;;;110988;1249;41185;-67
2022/08/21 03:39:00;;;;;;;;;;;;;20.18;96846.00;;;;110784;1250;41479;-69
2022/08/21 03:41:30;;;;;;;11.10;3.90;;;;;20.10;96848.60;;;;110713;1250;42336;-67
2022/08/21 03:44:00;;;;;;;8.30;3.60;;;;;20.10;96850.60;;;;110607;1249;41159;-68
2022/08/21 03:46:30;;;;;;;9.70;3.70;;;;;20.10;96847.40;;;;110876;1249;41261;-67
2022/08/21 03:49:00;;;;;;;8.40;3.40;;;;;20.10;96853.80;;;;110659;1249;41145;-66
2022/08/21 03:51:32;;;;;;;;;;;;;20.12;96854.80;;;;110862;1249;41134;-69
2022/08/21 03:54:02;;;;;;;8.60;3.60;;;;;20.14;96859.20;;;;110805;1250;41379;-68
2022/08/21 03:56:33;;;;;;;12.60;5.20;;;;;20.20;96864.00;;;;110711;1250;41171;-68
2022/08/21 03:59:03;;;;;;;16.80;5.80;;;;;20.20;96872.40;;;;110795;1250;41716;-67
2022/08/21 04:01:33;;;;;;;9.90;4.50;;;;;20.20;96874.80;;;;110804;1249;41159;-67
2022/08/21 04:04:04;;;;;;;9.90;3.70;;;;;20.20;96873.20;;;;110695;1250;41166;-67
2022/08/21 04:06:33;;;;;;;9.60;3.80;;;;;20.20;96869.60;;;;110714;1250;41259;-66
2022/08/21 04:09:05;;;;;;;9.20;3.70;;;;;20.20;96866.60;;;;110870;1249;42165;-67
2022/08/21 04:11:35;;;;;;;8.00;3.40;;;;;20.20;96871.40;;;;110818;1250;41722;-67
2022/08/21 04:14:06;;;;;;;10.90;3.30;;;;;20.30;96867.40;;;;111089;1250;41276;-67
2022/08/21 04:16:35;;;;;;;8.70;2.90;;;;;20.32;96869.40;;;;110742;1250;41131;-66
2022/08/21 04:19:05;;;;;;;7.20;3.10;;;;;20.40;96862.00;;;;110790;1249;41631;-66
2022/08/21 04:21:37;;;;;;;8.00;3.20;;;;;20.46;96862.40;;;;110690;1249;41147;-67
2022/08/21 04:24:08;;;;;;;11.20;4.00;;;;;20.50;96863.00;;;;110581;1252;41145;-66
2022/08/21 04:26:38;;;;;;;9.40;3.70;;;;;20.40;96863.40;;;;110714;1249;41153;-67
2022/08/21 04:29:08;;;;;;;8.90;4.00;;;;;20.44;96867.00;;;;110656;1250;41131;-67
2022/08/21 04:31:38;;;;;;;9.90;4.00;;;;;20.50;96869.00;;;;110943;1249;41227;-67
2022/08/21 04:34:07;;;;;;;11.70;4.10;;;;;20.42;96873.60;;;;110683;1251;41428;-68
2022/08/21 04:36:37;;;;;;;10.40;4.10;;;;;20.42;96869.60;;;;110910;1249;41143;-68
2022/08/21 04:39:06;;;;;;;10.40;4.40;;;;;20.40;96860.40;;;;111000;1249;41249;-67
2022/08/21 04:41:37;;;;;;;7.90;3.30;;;;;20.50;96856.20;;;;111053;1249;41141;-67
2022/08/21 04:44:08;;;;;;;10.40;3.40;;;;;20.62;96856.80;;;;110742;1249;41673;-67
2022/08/21 04:46:37;;;;;;;9.60;4.00;;;;;20.76;96858.20;;;;110780;1250;41248;-68
2022/08/21 04:49:07;;;;;;;11.60;3.60;;;;;20.80;96858.60;;;;110845;1250;41166;-67
2022/08/21 04:51:37;;;;;;;11.10;3.70;;;;;20.90;96863.80;;;;110662;1250;41487;-67
2022/08/21 04:54:11;;;;;;;9.10;3.80;;;;;21.00;96864.20;;;;109332;1250;1927526;-67
2022/08/21 04:56:41;;;;;;;9.40;3.60;;;;;21.10;96867.80;;;;110941;1249;41140;-66
2022/08/21 04:59:15;;;;;;;8.30;3.50;;;;;21.12;96865.20;;;;110741;1250;41786;-67
2022/08/21 05:01:45;;;;;;;9.20;3.30;;;;;21.20;96864.60;;;;110779;1249;41161;-67
2022/08/21 05:04:17;;;;;;;10.00;3.60;;;;;21.34;96865.40;;;;110832;1249;41268;-66
2022/08/21 05:06:48;;;;;;;8.00;3.40;;;;;21.50;96865.40;;;;110762;1250;41147;-66
2022/08/21 05:09:20;;;;;;;10.30;4.10;;;;;21.60;96866.80;;;;110784;1250;41474;-67
2022/08/21 05:11:49;;;;;;;10.40;3.70;;;;;21.70;96866.40;;;;110732;1252;41056;-67
2022/08/21 05:14:19;;;;;;;8.80;3.50;;;;;21.80;96872.20;;;;111065;1249;41158;-65
2022/08/21 05:16:48;;;;;;;11.00;4.30;;;;;21.80;96876.60;;;;111036;1249;41728;-64
2022/08/21 05:19:17;;;;;;;12.20;4.00;;;;;21.90;96880.20;;;;110903;1250;41690;-66
2022/08/21 05:21:49;;;;;;;10.80;4.40;;;;;21.82;96875.00;;;;110863;1249;41702;-66
2022/08/21 05:24:19;;;;;;;10.70;4.00;;;;;21.90;96872.80;;;;110779;1249;41725;-66
2022/08/21 05:26:48;;;;;;;13.40;4.60;;;;;21.88;96873.60;;;;110613;1250;41250;-67
2022/08/21 05:29:17;;;;;;;10.50;4.20;;;;;21.86;96875.00;;;;110863;1249;41154;-67
2022/08/21 05:31:47;;;;;;;9.80;3.90;;;;;21.96;96873.00;;;;110995;1249;41427;-66
2022/08/21 05:34:23;;;;;;;11.90;4.30;;;;;22.08;96870.20;;;;110993;1249;41156;-64
2022/08/21 05:36:52;;;;;;;9.90;4.20;;;;;22.20;96861.80;;;;110723;1249;41157;-65
2022/08/21 05:39:21;;;;;;;13.90;4.30;;;;;22.52;96839.40;;;;110955;1249;41937;-65
2022/08/21 05:41:49;;;;;;;14.00;4.60;;;;;23.16;96838.80;;;;111060;1249;41275;-65
2022/08/21 05:44:18;;;;;;;10.40;4.00;;;;;23.50;96846.80;;;;111073;1250;41953;-67
2022/08/21 05:46:47;;;;;;;11.40;4.10;;;;;23.70;96852.20;;;;110860;1250;41731;-65
2022/08/21 05:49:16;;;;;;;11.00;3.80;;;;;23.70;96853.80;;;;111126;1249;41228;-66
2022/08/21 05:51:45;;;;;;;14.30;4.40;;;;;23.56;96859.20;;;;110954;1249;41261;-68
2022/08/21 05:54:14;;;;;;;10.40;4.00;;;;;23.30;96866.40;;;;110977;1249;41156;-66
2022/08/21 05:56:44;;;;;;;14.20;4.30;;;;;23.00;96867.20;;;;110925;1249;41151;-66
2022/08/21 05:59:13;;;;;;;11.70;3.60;;;;;22.90;96866.80;;;;110674;1251;41261;-65
2022/08/21 06:01:42;;;;;;;11.70;3.80;;;;;22.90;96869.00;;;;110907;1249;41207;-65
2022/08/21 06:04:13;;;;;;;11.60;3.70;;;;;22.90;96865.20;;;;110948;1250;41379;-65
2022/08/21 06:06:41;;;;;;;9.70;4.40;;;;;22.90;96862.60;;;;110954;1249;41977;-69
2022/08/21 06:09:10;;;;;;;7.60;3.20;;;;;22.96;96865.20;;;;110920;1249;42396;-69
2022/08/21 06:11:40;;;;;;;11.00;4.30;;;;;22.90;96866.40;;;;110885;1249;41319;-66
2022/08/21 06:14:09;;;;;;;11.00;3.40;;;;;22.90;96859.20;;;;110905;1249;41161;-67
2022/08/21 06:16:38;;;;;;;9.70;3.80;;;;;22.90;96862.00;;;;110883;1249;41152;-68
2022/08/21 06:19:07;;;;;;;11.50;3.10;;;;;22.90;96861.20;;;;110893;1249;41799;-67
2022/08/21 06:21:36;;;;;;;10.30;3.70;;;;;23.08;96856.00;;;;110795;1249;40749;-65
2022/08/21 06:24:05;;;;;;;13.30;4.40;;;;;23.28;96851.20;;;;110774;1249;42004;-65
2022/08/21 06:26:34;;;;;;;10.30;3.40;;;;;23.30;96845.40;;;;110686;1249;41133;-66
2022/08/21 06:29:04;;;;;;;10.30;3.30;;;;;23.50;96853.00;;;;110927;1249;41530;-65
2022/08/21 06:31:33;;;;;;;10.80;4.00;;;;;23.76;96851.20;;;;110922;1249;41139;-65
2022/08/21 06:34:01;;;;;;;12.70;4.20;;;;;23.80;96853.80;;;;110734;1249;41158;-64
2022/08/21 06:36:30;;;;;;;13.20;4.40;;;;;23.80;96857.60;;;;110762;1249;41184;-65
2022/08/21 06:38:59;;;;;;;10.60;3.50;;;;;23.90;96859.20;;;;110774;1250;42175;-65
2022/08/21 06:41:28;;;;;;;12.50;4.00;;;;;23.80;96859.40;;;;110777;1250;41264;-66
2022/08/21 06:43:57;;;;;;;9.70;3.70;;;;;23.80;96858.40;;;;110801;1249;42116;-66
2022/08/21 06:46:31;;;;;;;10.10;4.00;;;;;23.80;96859.00;;;;110683;1249;41155;-64
2022/08/21 06:49:00;;;;;;;12.80;4.00;;;;;23.90;96858.60;;;;110786;1249;41155;-68
2022/08/21 06:51:28;;;;;;;11.70;3.50;;;;;24.08;96854.80;;;;110768;1250;43537;-65
2022/08/21 06:53:57;;;;;;;10.40;3.60;;;;;24.14;96853.20;;;;110930;1249;41134;-67
2022/08/21 06:56:27;;;;;;;11.70;3.80;;;;;24.30;96854.80;;;;110731;1249;42152;-66
2022/08/21 06:58:56;;;;;;;11.80;3.80;;;;;24.30;96856.40;;;;110781;1251;41158;-67
2022/08/21 07:01:26;;;;;;;11.00;3.80;;;;;24.30;96854.20;;;;110719;1249;41183;-66
2022/08/21 07:03:55;;;;;;;10.50;4.00;;;;;24.40;96857.80;;;;110709;1250;41145;-66
2022/08/21 07:06:24;;;;;;;10.10;4.30;;;;;24.40;96857.20;;;;110748;1249;41156;-66
2022/08/21 07:08:53;;;;;;;9.00;3.50;;;;;24.24;96857.00;;;;110675;1249;41240;-65
2022/08/21 07:11:24;;;;;;;7.90;3.00;;;;;24.52;96847.00;;;;110721;1252;41374;-65
2022/08/21 07:13:54;;;;;;;6.70;2.70;;;;;25.00;96851.40;;;;110670;1249;41671;-68
2022/08/21 07:16:23;;;;;;;10.10;3.10;;;;;25.30;96850.40;;;;110825;1249;41287;-67
2022/08/21 07:18:52;;;;;;;8.40;3.10;;;;;25.30;96851.20;;;;110846;1249;41706;-67
2022/08/21 07:21:21;;;;;;;7.40;3.40;;;;;25.30;96849.40;;;;110821;1249;42131;-66
2022/08/21 07:23:53;;;;;;;8.20;3.00;;;;;25.20;96847.60;;;;110829;1249;41147;-66
2022/08/21 07:26:23;;;;;;;9.90;3.30;;;;;25.28;96843.20;;;;110767;1249;43098;-67
2022/08/21 07:28:53;;;;;;;8.60;3.10;;;;;25.30;96847.40;;;;110819;1250;42505;-67
2022/08/21 07:31:24;;;;;;;7.70;3.20;;;;;25.50;96848.80;;;;110844;1248;41799;-66
2022/08/21 07:33:52;;;;;;;;;;;;;25.50;96848.60;;;;111022;1248;41633;-67
2022/08/21 07:36:22;;;;;;;11.90;3.30;;;;;25.56;96847.40;;;;110716;1250;41200;-66
2022/08/21 07:38:52;;;;;;;12.50;4.50;;;;;25.80;96845.20;;;;110859;1249;41238;-66
2022/08/21 07:41:25;;;;;;;11.60;3.90;;;;;25.90;96838.00;;;;110616;1249;41139;-66
2022/08/21 07:43:57;;;;;;;9.10;3.10;;;;;25.88;96838.60;;;;110755;1249;41154;-65
2022/08/21 07:46:27;;;;;;;12.90;4.10;;;;;25.88;96839.80;;;;110848;1249;41154;-66
2022/08/21 07:48:56;;;;;;;10.30;3.00;;;;;25.74;96836.80;;;;110917;1249;41156;-66
2022/08/21 07:51:27;;;;;;;9.50;3.30;;;;;25.92;96836.80;;;;110881;1250;41675;-72
2022/08/21 07:53:58;;;;;;;7.60;2.80;;;;;26.00;96831.40;;;;110898;1249;41147;-73
2022/08/21 07:56:29;;;;;;;9.80;3.80;;;;;26.22;96832.20;;;;110748;1249;41155;-71
2022/08/21 07:58:58;;;;;;;7.90;2.90;;;;;26.50;96831.80;;;;110850;1249;41164;-74
2022/08/21 08:01:27;;;;;;;8.90;2.80;;;;;26.84;96823.00;;;;110745;1250;42385;-75
2022/08/21 08:03:56;;;;;;;7.90;2.90;;;;;27.36;96827.00;;;;111035;1249;41272;-73
2022/08/21 08:06:25;;;;;;;9.30;2.90;;;;;27.78;96821.80;;;;110829;1249;41274;-76
2022/08/21 08:08:54;;;;;;;9.60;2.90;;;;;28.00;96821.00;;;;110812;1249;41880;-73
2022/08/21 08:11:23;;;;;;;6.30;2.50;;;;;28.30;96823.20;;;;110798;1249;41150;-73
2022/08/21 08:13:52;;;;;;;7.40;2.80;;;;;28.50;96821.80;;;;110763;1249;41642;-73
2022/08/21 08:16:21;;;;;;;12.10;3.30;;;;;28.70;96816.40;;;;110595;1250;41505;-73
2022/08/21 08:18:51;;;;;;;10.40;3.40;;;;;28.90;96814.20;;;;110572;1252;41159;-72
2022/08/21 08:21:20;;;;;;;7.50;2.90;;;;;29.20;96809.00;;;;110599;1251;41161;-72
2022/08/21 08:23:49;;;;;;;6.00;2.50;;;;;29.00;96807.60;;;;110665;1251;41152;-74
2022/08/21 08:26:18;;;;;;;7.80;2.50;;;;;29.28;96800.00;;;;110753;1250;41258;-74
2022/08/21 08:28:47;;;;;;;10.90;2.70;;;;;29.80;96798.60;;;;110756;1249;41162;-72
2022/08/21 08:31:16;;;;;;;7.50;2.40;;;;;30.00;96792.40;;;;110839;1250;42390;-74
2022/08/21 08:33:45;;;;;;;7.20;2.50;;;;;30.10;96791.60;;;;110947;1249;41852;-74
2022/08/21 08:36:17;;;;;;;8.60;2.50;;;;;30.38;96792.20;;;;110924;1249;42392;-74
2022/08/21 08:38:47;;;;;;;10.20;2.70;;;;;30.40;96792.40;;;;110686;1251;41254;-72
2022/08/21 08:41:17;;;;;;;8.40;2.80;;;;;30.40;96792.80;;;;110699;1250;41227;-72
2022/08/21 08:43:52;;;;;;;9.90;3.10;;;;;30.32;96788.80;;;;110632;1251;41807;-69
2022/08/21 08:46:42;;;;;;;12.30;3.70;;;;;30.24;96787.20;;;;110778;1250;42231;-72
2022/08/21 08:49:20;;;;;;;11.40;2.90;;;;;30.18;96791.60;;;;110637;1251;41241;-67
2022/08/21 08:51:57;;;;;;;7.40;2.50;;;;;29.90;96795.60;;;;110773;1251;42098;-71
2022/08/21 08:54:37;;;;;;;7.20;2.30;;;;;30.34;96789.20;;;;110911;1249;41633;-72
2022/08/21 08:57:10;;;;;;;10.00;3.00;;;;;31.14;96793.20;;;;110542;1252;41183;-72
2022/08/21 08:59:42;;;;;;;8.30;3.00;;;;;31.68;96785.40;;;;110637;1249;41156;-70
2022/08/21 09:02:12;;;;;;;14.10;2.70;;;;;31.94;96784.60;;;;110812;1250;41145;-72
2022/08/21 09:04:41;;;;;;;9.50;2.90;;;;;32.20;96782.60;;;;110757;1249;41747;-72
2022/08/21 09:07:32;;;;;;;8.00;2.80;;;;;32.30;96783.00;;;;110654;1249;42461;-72
2022/08/21 09:10:13;;;;;;;6.70;2.60;;;;;32.30;96785.00;;;;110527;1251;41977;-70
2022/08/21 09:13:09;;;;;;;7.80;2.80;;;;;32.30;96782.40;;;;110600;1249;41143;-72
2022/08/21 09:15:48;;;;;;;6.80;2.40;;;;;32.38;96783.40;;;;111101;1249;41146;-71
2022/08/21 09:18:38;;;;;;;6.10;2.50;;;;;32.58;96780.20;;;;110878;1248;41150;-73
2022/08/21 09:21:09;;;;;;;9.60;2.70;;;;;32.80;96778.40;;;;110880;1249;41133;-72
2022/08/21 09:23:53;;;;;;;7.20;1.90;;;;;32.70;96775.40;;;;110702;1249;41142;-72
2022/08/21 09:26:46;;;;;;;6.50;2.50;;;;;32.86;96765.60;;;;110696;1250;41196;-70
2022/08/21 09:29:18;;;;;;;7.80;2.50;;;;;33.00;96760.60;;;;110695;1249;41165;-71
2022/08/21 09:31:47;;;;;;;10.30;3.00;;;;;33.58;96753.40;;;;110850;1249;41202;-71
2022/08/21 09:34:25;;;;;;;7.30;2.60;;;;;33.62;96744.80;;;;110608;1251;41249;-70
2022/08/21 09:36:55;;;;;;;9.60;3.30;;;;;33.46;96743.40;;;;110646;1252;41928;-70
2022/08/21 09:39:33;;;;;;;7.70;2.80;;;;;33.90;96737.00;;;;110642;1250;42469;-72
2022/08/21 09:42:09;;;;;;;8.70;2.80;;;;;34.00;96732.40;;;;110628;1251;41147;-71
2022/08/21 09:44:43;;;;;;;8.80;2.60;;;;;34.10;96729.80;;;;110871;1249;41503;-72
2022/08/21 09:47:14;;;;;;;7.50;2.90;;;;;34.60;96728.80;;;;110643;1251;42650;-72
2022/08/21 09:49:43;;;;;;;8.80;2.50;;;;;34.90;96733.60;;;;110862;1249;41633;-72
2022/08/21 09:52:21;;;;;;;8.40;2.30;;;;;35.00;96731.60;;;;110836;1250;41641;-73
2022/08/21 09:54:55;;;;;;;10.40;2.80;;;;;35.14;96728.60;;;;110820;1250;42026;-72
2022/08/21 09:57:39;;;;;;;6.30;2.40;;;;;35.36;96724.20;;;;110618;1252;41553;-71
2022/08/21 10:00:29;;;;;;;6.40;2.40;;;;;35.78;96719.00;;;;110796;1250;41608;-71
2022/08/21 10:03:20;;;;;;;7.70;2.50;;;;;36.20;96714.20;;;;110736;1249;41168;-72
2022/08/21 10:06:01;;;;;;;21.00;9.00;;;;;36.68;96713.00;;;;110644;1252;41782;-72
2022/08/21 10:08:30;;;;;;;7.60;2.70;;;;;36.46;96707.20;;;;110725;1249;41149;-72
2022/08/21 10:11:06;;;;;;;9.00;3.10;;;;;35.66;96709.80;;;;110803;1251;41160;-72
2022/08/21 10:13:51;;;;;;;7.80;2.60;;;;;35.00;96709.40;;;;110797;1250;41600;-72
2022/08/21 10:16:42;;;;;;;9.20;2.90;;;;;34.72;96708.20;;;;110643;1251;41163;-72
2022/08/21 10:19:21;;;;;;;9.30;2.40;;;;;34.60;96706.00;;;;110763;1249;41307;-72
2022/08/21 10:22:32;;;;;;;10.80;3.30;;;;;34.56;96705.20;;;;110565;1252;42567;-71
2022/08/21 10:25:16;;;;;;;10.60;3.30;;;;;34.26;96707.00;;;;110014;1258;42299;-70
2022/08/21 10:27:47;;;;;;;9.10;3.60;;;;;33.90;96708.40;;;;110113;1259;41431;-73
2022/08/21 10:30:27;;;;;;;8.30;3.00;;;;;33.30;96704.40;;;;110496;1251;41177;-72
2022/08/21 10:33:17;;;;;;;11.10;3.90;;;;;32.96;96708.00;;;;110723;1251;42789;-71
2022/08/21 10:36:02;;;;;;;10.00;2.90;;;;;32.88;96704.80;;;;110553;1251;41280;-72
2022/08/21 10:38:53;;;;;;;7.10;2.40;;;;;32.80;96703.20;;;;110738;1252;41166;-72
2022/08/21 10:41:57;;;;;;;8.60;2.70;;;;;33.10;96696.40;;;;110882;1250;41325;-72
2022/08/21 10:44:29;;;;;;;8.30;3.20;;;;;33.46;96690.40;;;;110666;1249;41893;-71
2022/08/21 10:47:05;;;;;;;7.20;2.60;;;;;33.36;96685.40;;;;110655;1249;41157;-72
2022/08/21 10:49:50;;;;;;;6.40;2.40;;;;;33.40;96680.60;;;;110679;1250;41161;-73
2022/08/21 10:52:43;;;;;;;10.30;2.90;;;;;34.02;96679.80;;;;110758;1251;41291;-70
2022/08/21 10:55:22;;;;;;;8.10;2.60;;;;;34.20;96675.60;;;;110758;1250;41313;-73
2022/08/21 10:57:59;;;;;;;9.40;2.80;;;;;34.20;96664.20;;;;110836;1250;41246;-73
2022/08/21 11:00:58;;;;;;;10.70;2.70;;;;;34.10;96664.80;;;;110664;1251;41231;-75
2022/08/21 11:03:41;;;;;;;8.30;2.60;;;;;34.10;96660.60;;;;110603;1250;41225;-72
2022/08/21 11:06:30;;;;;;;8.90;3.00;;;;;34.20;96649.80;;;;110905;1249;41613;-72
2022/08/21 11:09:09;;;;;;;7.90;2.90;;;;;34.40;96645.60;;;;110738;1251;41261;-72
2022/08/21 11:11:40;;;;;;;;;;;;;34.82;96644.00;;;;110595;1252;41163;-71
2022/08/21 11:14:31;;;;;;;8.90;2.80;;;;;35.30;96642.60;;;;110558;1251;41157;-72
2022/08/21 11:17:12;;;;;;;5.90;2.20;;;;;35.84;96640.20;;;;110815;1252;41165;-72
2022/08/21 11:19:45;;;;;;;6.30;2.50;;;;;36.20;96631.20;;;;110651;1252;41134;-71
2022/08/21 11:22:38;;;;;;;9.40;2.50;;;;;36.40;96628.40;;;;110598;1251;41474;-71
2022/08/21 11:25:13;;;;;;;7.30;2.90;;;;;36.70;96632.00;;;;110668;1250;41941;-72
2022/08/21 11:27:46;;;;;;;7.80;2.80;;;;;37.22;96626.20;;;;110822;1251;41214;-72
2022/08/21 11:30:15;;;;;;;6.50;2.30;;;;;37.30;96630.60;;;;110606;1251;41211;-72
2022/08/21 11:33:08;;;;;;;7.20;2.80;;;;;37.10;96628.40;;;;110589;1251;41149;-73
2022/08/21 11:35:50;;;;;;;5.60;2.20;;;;;36.90;96629.20;;;;110592;1252;41148;-72
2022/08/21 11:38:40;;;;;;;6.00;2.00;;;;;36.50;96633.40;;;;110677;1251;41910;-72
2022/08/21 11:41:30;;;;;;;9.00;2.80;;;;;36.16;96639.20;;;;110716;1252;41148;-73
2022/08/21 11:44:19;;;;;;;6.90;2.60;;;;;35.80;96644.60;;;;110399;1252;42334;-72
2022/08/21 11:46:53;;;;;;;7.20;2.70;;;;;35.56;96644.20;;;;110598;1251;41299;-72
2022/08/21 11:49:50;;;;;;;8.40;2.50;;;;;35.30;96644.20;;;;110533;1254;41970;-73
2022/08/21 11:52:28;;;;;;;5.50;2.10;;;;;35.00;96642.80;;;;110682;1251;41257;-70
2022/08/21 11:55:17;;;;;;;6.50;2.50;;;;;34.82;96637.40;;;;110629;1251;41161;-72
2022/08/21 11:58:18;;;;;;;9.00;2.50;;;;;34.88;96634.20;;;;110584;1251;41854;-73
2022/08/21 12:00:56;;;;;;;8.00;2.80;;;;;34.80;96630.60;;;;110647;1251;41178;-72
2022/08/21 12:03:34;;;;;;;10.20;3.70;;;;;34.90;96621.20;;;;110715;1251;41355;-72
2022/08/21 12:06:10;;;;;;;10.00;3.30;;;;;35.34;96620.80;;;;110677;1250;42554;-72
2022/08/21 12:08:44;;;;;;;8.90;2.60;;;;;35.42;96621.80;;;;110817;1250;41148;-72
2022/08/21 12:11:15;;;;;;;10.00;2.90;;;;;36.06;96621.60;;;;110813;1249;41158;-73
2022/08/21 12:13:58;;;;;;;6.90;2.90;;;;;36.20;96619.60;;;;110856;1249;41833;-72
2022/08/21 12:16:34;;;;;;;11.70;3.60;;;;;36.84;96620.80;;;;110701;1250;41284;-73
2022/08/21 12:19:07;;;;;;;10.00;3.10;;;;;37.60;96613.00;;;;111012;1250;41242;-73
2022/08/21 12:22:04;;;;;;;11.70;3.60;;;;;37.50;96609.40;;;;110815;1252;41357;-73
2022/08/21 12:24:36;;;;;;;11.30;2.90;;;;;37.20;96599.60;;;;110903;1249;41358;-73
2022/08/21 12:27:44;;;;;;;8.00;2.70;;;;;37.22;96588.20;;;;110700;1250;41204;-74
2022/08/21 12:30:26;;;;;;;7.90;2.40;;;;;37.66;96579.20;;;;110459;1249;41271;-72
2022/08/21 12:33:24;;;;;;;8.90;2.70;;;;;38.50;96572.20;;;;110737;1249;41130;-74
2022/08/21 12:36:11;;;;;;;12.40;3.60;;;;;38.90;96555.80;;;;110637;1250;41151;-72
2022/08/21 12:38:49;;;;;;;9.70;2.60;;;;;39.14;96550.20;;;;110621;1250;41412;-71
2022/08/21 12:41:26;;;;;;;6.00;2.40;;;;;37.94;96560.60;;;;110755;1250;42393;-72